createdAt,value
2017-03-20T00:00:15.719Z,0
2017-03-20T00:00:56.204Z,0
2017-03-20T00:01:36.697Z,0
2017-03-20T00:02:17.177Z,0
2017-03-20T00:02:57.675Z,0
2017-03-20T00:03:38.162Z,0
2017-03-20T00:04:18.639Z,0
2017-03-20T00:04:59.123Z,0
2017-03-20T00:05:39.609Z,0
2017-03-20T00:06:20.094Z,0
2017-03-20T00:07:00.583Z,0
2017-03-20T00:07:41.072Z,0
2017-03-20T00:08:21.561Z,0
2017-03-20T00:09:02.061Z,0
2017-03-20T00:09:42.544Z,0
2017-03-20T00:10:23.039Z,0
2017-03-20T00:11:03.525Z,0
2017-03-20T00:11:44.028Z,0
2017-03-20T00:12:24.520Z,0
2017-03-20T00:13:05.014Z,0
2017-03-20T00:13:45.511Z,0
2017-03-20T00:14:25.998Z,0
2017-03-20T00:15:06.493Z,0
2017-03-20T00:15:46.975Z,0
2017-03-20T00:16:27.480Z,0
2017-03-20T00:17:07.970Z,0
2017-03-20T00:17:48.454Z,0
2017-03-20T00:18:28.958Z,0
2017-03-20T00:19:09.958Z,0
2017-03-20T00:19:50.455Z,0
2017-03-20T00:20:30.953Z,0
2017-03-20T00:21:11.436Z,0
2017-03-20T00:21:51.921Z,0
2017-03-20T00:22:32.422Z,0
2017-03-20T00:23:12.914Z,0
2017-03-20T00:23:53.401Z,0
2017-03-20T00:24:33.910Z,0
2017-03-20T00:25:14.393Z,0
2017-03-20T00:25:54.886Z,0
2017-03-20T00:26:35.368Z,0
2017-03-20T00:27:15.849Z,0
2017-03-20T00:27:56.326Z,0
2017-03-20T00:28:36.827Z,0
2017-03-20T00:29:17.314Z,0
2017-03-20T00:29:57.803Z,0
2017-03-20T00:30:38.301Z,0
2017-03-20T00:31:18.785Z,0
2017-03-20T00:31:59.281Z,0
2017-03-20T00:32:39.774Z,0
2017-03-20T00:33:20.266Z,0
2017-03-20T00:34:00.748Z,0
2017-03-20T00:34:41.245Z,0
2017-03-20T00:35:21.745Z,0
2017-03-20T00:36:02.213Z,0
2017-03-20T00:36:42.701Z,0
2017-03-20T00:37:23.209Z,0
2017-03-20T00:38:03.691Z,0
2017-03-20T00:38:44.182Z,0
2017-03-20T00:39:24.695Z,0
2017-03-20T00:40:05.178Z,0
2017-03-20T00:40:45.676Z,0
2017-03-20T00:41:26.173Z,0
2017-03-20T00:42:06.665Z,0
2017-03-20T00:42:47.134Z,0
2017-03-20T00:43:27.624Z,0
2017-03-20T00:44:08.111Z,0
2017-03-20T00:44:48.586Z,0
2017-03-20T00:45:29.078Z,0
2017-03-20T00:46:09.582Z,0
2017-03-20T00:46:50.076Z,0
2017-03-20T00:47:30.548Z,0
2017-03-20T00:48:11.040Z,0
2017-03-20T00:48:51.533Z,0
2017-03-20T00:49:32.022Z,0
2017-03-20T00:50:12.516Z,0
2017-03-20T00:50:53.018Z,0
2017-03-20T00:51:33.489Z,0
2017-03-20T00:52:13.992Z,0
2017-03-20T00:52:54.479Z,0
2017-03-20T00:53:34.966Z,0
2017-03-20T00:54:15.505Z,0
2017-03-20T00:54:55.957Z,0
2017-03-20T00:55:36.445Z,0
2017-03-20T00:56:16.939Z,0
2017-03-20T00:56:57.433Z,0
2017-03-20T00:57:37.921Z,0
2017-03-20T00:58:18.421Z,0
2017-03-20T00:58:58.906Z,0
2017-03-20T00:59:39.388Z,0
2017-03-20T01:00:19.874Z,0
2017-03-20T01:01:00.366Z,0
2017-03-20T01:01:40.863Z,0
2017-03-20T01:02:21.339Z,0
2017-03-20T01:03:01.835Z,0
2017-03-20T01:03:42.324Z,0
2017-03-20T01:04:22.814Z,0
2017-03-20T01:05:03.313Z,0
2017-03-20T01:05:43.787Z,0
2017-03-20T01:06:24.270Z,0
2017-03-20T01:07:04.760Z,0
2017-03-20T01:07:45.251Z,0
2017-03-20T01:08:25.739Z,0
2017-03-20T01:09:06.223Z,0
2017-03-20T01:09:46.716Z,0
2017-03-20T01:10:27.206Z,0
2017-03-20T01:11:07.701Z,0
2017-03-20T01:11:48.206Z,0
2017-03-20T01:12:28.686Z,0
2017-03-20T01:13:09.181Z,0
2017-03-20T01:13:49.677Z,0
2017-03-20T01:14:30.186Z,0
2017-03-20T01:15:10.682Z,0
2017-03-20T01:15:51.180Z,0
2017-03-20T01:16:31.647Z,0
2017-03-20T01:17:12.133Z,0
2017-03-20T01:17:52.628Z,0
2017-03-20T01:18:33.116Z,0
2017-03-20T01:19:13.609Z,0
2017-03-20T01:19:54.110Z,0
2017-03-20T01:20:34.594Z,0
2017-03-20T01:21:15.090Z,0
2017-03-20T01:21:55.587Z,0
2017-03-20T01:22:36.076Z,0
2017-03-20T01:23:16.564Z,0
2017-03-20T01:23:57.046Z,0
2017-03-20T01:24:37.552Z,0
2017-03-20T01:25:18.044Z,0
2017-03-20T01:25:58.508Z,0
2017-03-20T01:26:38.977Z,0
2017-03-20T01:27:19.480Z,0
2017-03-20T01:27:59.967Z,0
2017-03-20T01:28:41.193Z,0
2017-03-20T01:29:20.888Z,0
2017-03-20T01:30:01.355Z,0
2017-03-20T01:30:41.804Z,0
2017-03-20T01:31:22.261Z,0
2017-03-20T01:32:02.726Z,0
2017-03-20T01:32:43.199Z,0
2017-03-20T01:33:23.688Z,0
2017-03-20T01:34:04.157Z,0
2017-03-20T01:34:44.594Z,0
2017-03-20T01:36:57.302Z,0
2017-03-20T01:37:37.778Z,0
2017-03-20T01:38:18.276Z,0
2017-03-20T01:38:58.747Z,0
2017-03-20T01:39:39.232Z,0
2017-03-20T01:40:19.727Z,0
2017-03-20T01:41:00.218Z,0
2017-03-20T01:41:40.709Z,0
2017-03-20T01:42:21.200Z,0
2017-03-20T01:43:01.692Z,0
2017-03-20T01:43:42.203Z,0
2017-03-20T01:44:22.678Z,0
2017-03-20T01:45:03.172Z,0
2017-03-20T01:45:43.648Z,0
2017-03-20T01:46:24.134Z,0
2017-03-20T01:47:04.618Z,0
2017-03-20T01:47:45.128Z,0
2017-03-20T01:48:25.591Z,0
2017-03-20T01:49:06.089Z,0
2017-03-20T01:49:46.585Z,0
2017-03-20T01:50:27.069Z,0
2017-03-20T01:51:07.561Z,0
2017-03-20T01:51:48.063Z,0
2017-03-20T01:52:28.560Z,0
2017-03-20T01:53:09.053Z,0
2017-03-20T01:53:49.552Z,0
2017-03-20T01:54:30.041Z,0
2017-03-20T01:55:10.510Z,0
2017-03-20T01:55:51.008Z,0
2017-03-20T01:56:31.500Z,0
2017-03-20T01:57:11.973Z,0
2017-03-20T01:57:52.473Z,0
2017-03-20T01:58:32.981Z,0
2017-03-20T01:59:13.439Z,0
2017-03-20T01:59:53.934Z,0
2017-03-20T02:00:34.433Z,0
2017-03-20T02:01:14.903Z,0
2017-03-20T02:01:55.388Z,0
2017-03-20T02:02:35.882Z,0
2017-03-20T02:03:16.390Z,0
2017-03-20T02:03:56.846Z,0
2017-03-20T02:04:37.322Z,0
2017-03-20T02:05:17.812Z,0
2017-03-20T02:05:58.307Z,0
2017-03-20T02:06:38.799Z,0
2017-03-20T02:07:19.297Z,0
2017-03-20T02:07:59.783Z,0
2017-03-20T02:08:40.273Z,0
2017-03-20T02:11:08.220Z,0
2017-03-20T02:11:48.688Z,0
2017-03-20T02:12:29.175Z,0
2017-03-20T02:13:09.655Z,0
2017-03-20T02:13:50.131Z,0
2017-03-20T02:14:30.641Z,0
2017-03-20T02:15:11.130Z,0
2017-03-20T02:15:51.622Z,0
2017-03-20T02:16:32.113Z,0
2017-03-20T02:17:12.609Z,0
2017-03-20T02:17:53.100Z,0
2017-03-20T02:18:33.592Z,0
2017-03-20T02:19:14.084Z,0
2017-03-20T02:19:54.578Z,0
2017-03-20T02:20:35.069Z,0
2017-03-20T02:21:15.561Z,0
2017-03-20T02:21:56.054Z,0
2017-03-20T02:22:36.545Z,0
2017-03-20T02:23:18.024Z,0
2017-03-20T02:23:58.510Z,0
2017-03-20T02:24:38.996Z,0
2017-03-20T02:25:19.503Z,0
2017-03-20T02:26:00.790Z,0
2017-03-20T02:26:41.278Z,0
2017-03-20T02:27:21.772Z,0
2017-03-20T02:28:02.261Z,0
2017-03-20T02:28:42.756Z,0
2017-03-20T02:29:23.251Z,0
2017-03-20T02:30:03.735Z,0
2017-03-20T02:30:44.231Z,0
2017-03-20T02:31:24.688Z,0
2017-03-20T02:32:05.175Z,0
2017-03-20T02:32:45.673Z,0
2017-03-20T02:33:26.165Z,0
2017-03-20T02:34:06.667Z,0
2017-03-20T02:34:47.151Z,0
2017-03-20T02:35:27.641Z,0
2017-03-20T02:36:08.130Z,0
2017-03-20T02:36:48.629Z,0
2017-03-20T02:37:29.119Z,0
2017-03-20T02:38:09.624Z,0
2017-03-20T02:38:50.081Z,0
2017-03-20T02:39:30.580Z,0
2017-03-20T02:40:11.063Z,0
2017-03-20T02:40:51.540Z,0
2017-03-20T02:41:32.041Z,0
2017-03-20T02:42:12.532Z,0
2017-03-20T02:42:53.024Z,0
2017-03-20T02:43:33.516Z,0
2017-03-20T02:44:14.012Z,0
2017-03-20T02:44:54.508Z,0
2017-03-20T02:45:34.997Z,0
2017-03-20T02:46:15.486Z,0
2017-03-20T02:46:55.990Z,0
2017-03-20T02:47:36.469Z,0
2017-03-20T02:48:16.950Z,0
2017-03-20T02:48:57.455Z,0
2017-03-20T02:49:37.945Z,0
2017-03-20T02:50:18.441Z,0
2017-03-20T02:50:58.941Z,0
2017-03-20T02:51:39.429Z,0
2017-03-20T02:52:19.918Z,0
2017-03-20T02:53:00.411Z,0
2017-03-20T02:53:40.907Z,0
2017-03-20T02:54:21.401Z,0
2017-03-20T02:55:01.899Z,0
2017-03-20T02:55:42.390Z,0
2017-03-20T02:56:22.885Z,0
2017-03-20T02:57:03.394Z,0
2017-03-20T02:57:43.892Z,0
2017-03-20T02:58:24.390Z,0
2017-03-20T02:59:04.875Z,0
2017-03-20T02:59:45.352Z,0
2017-03-20T03:00:25.825Z,0
2017-03-20T03:01:06.319Z,0
2017-03-20T03:01:46.813Z,0
2017-03-20T03:02:27.301Z,0
2017-03-20T03:03:07.802Z,0
2017-03-20T03:03:48.314Z,0
2017-03-20T03:04:28.780Z,0
2017-03-20T03:05:09.277Z,0
2017-03-20T03:05:49.763Z,0
2017-03-20T03:06:30.256Z,0
2017-03-20T03:07:10.758Z,0
2017-03-20T03:07:51.242Z,0
2017-03-20T03:08:31.733Z,0
2017-03-20T03:09:12.236Z,0
2017-03-20T03:09:52.726Z,0
2017-03-20T03:10:33.217Z,0
2017-03-20T03:11:13.712Z,0
2017-03-20T03:11:54.206Z,0
2017-03-20T03:12:34.695Z,0
2017-03-20T03:13:15.190Z,0
2017-03-20T03:13:55.677Z,0
2017-03-20T03:14:36.164Z,0
2017-03-20T03:15:16.658Z,0
2017-03-20T03:15:57.154Z,0
2017-03-20T03:16:37.644Z,0
2017-03-20T03:17:18.144Z,0
2017-03-20T03:17:58.628Z,0
2017-03-20T03:18:39.119Z,0
2017-03-20T03:19:19.621Z,0
2017-03-20T03:20:00.101Z,0
2017-03-20T03:20:40.596Z,0
2017-03-20T03:21:21.099Z,0
2017-03-20T03:22:01.591Z,0
2017-03-20T03:22:42.075Z,0
2017-03-20T03:23:22.577Z,0
2017-03-20T03:24:03.056Z,0
2017-03-20T03:24:43.551Z,0
2017-03-20T03:25:24.052Z,0
2017-03-20T03:26:04.536Z,0
2017-03-20T03:26:45.045Z,0
2017-03-20T03:27:25.550Z,0
2017-03-20T03:28:06.047Z,0
2017-03-20T03:28:46.539Z,0
2017-03-20T03:29:27.036Z,0
2017-03-20T03:30:07.530Z,0
2017-03-20T03:30:48.024Z,0
2017-03-20T03:31:28.522Z,0
2017-03-20T03:32:09.002Z,0
2017-03-20T03:32:49.502Z,0
2017-03-20T03:33:29.989Z,0
2017-03-20T03:34:10.478Z,0
2017-03-20T03:34:50.976Z,0
2017-03-20T03:35:31.466Z,0
2017-03-20T03:36:11.960Z,0
2017-03-20T03:36:52.461Z,0
2017-03-20T03:37:32.942Z,0
2017-03-20T03:38:13.433Z,0
2017-03-20T03:38:54.622Z,0
2017-03-20T03:39:35.134Z,0
2017-03-20T03:40:15.625Z,0
2017-03-20T03:40:56.119Z,0
2017-03-20T03:41:36.604Z,0
2017-03-20T03:42:17.103Z,0
2017-03-20T03:42:57.597Z,0
2017-03-20T03:43:38.080Z,0
2017-03-20T03:44:18.581Z,0
2017-03-20T03:44:59.084Z,0
2017-03-20T03:45:39.564Z,0
2017-03-20T03:46:20.043Z,0
2017-03-20T03:47:00.533Z,0
2017-03-20T03:47:41.017Z,0
2017-03-20T03:48:21.509Z,0
2017-03-20T03:49:02.004Z,0
2017-03-20T03:49:42.495Z,0
2017-03-20T03:50:22.992Z,0
2017-03-20T03:51:04.222Z,0
2017-03-20T03:51:44.713Z,0
2017-03-20T03:52:25.206Z,0
2017-03-20T03:53:05.706Z,0
2017-03-20T03:53:46.190Z,0
2017-03-20T03:54:26.683Z,0
2017-03-20T03:55:07.177Z,0
2017-03-20T03:55:47.671Z,0
2017-03-20T03:56:28.160Z,0
2017-03-20T03:57:08.658Z,0
2017-03-20T03:57:49.143Z,0
2017-03-20T03:58:29.644Z,0
2017-03-20T03:59:10.128Z,0
2017-03-20T03:59:50.622Z,0
2017-03-20T04:00:31.137Z,0
2017-03-20T04:01:11.603Z,0
2017-03-20T04:01:52.112Z,0
2017-03-20T04:02:32.609Z,0
2017-03-20T04:03:13.121Z,0
2017-03-20T04:03:53.609Z,0
2017-03-20T04:04:34.085Z,0
2017-03-20T04:05:14.592Z,0
2017-03-20T04:05:55.090Z,0
2017-03-20T04:06:35.607Z,0
2017-03-20T04:07:16.083Z,0
2017-03-20T04:07:56.589Z,0
2017-03-20T04:08:37.100Z,0
2017-03-20T04:09:17.581Z,0
2017-03-20T04:09:58.092Z,0
2017-03-20T04:10:39.528Z,0
2017-03-20T04:11:20.005Z,0
2017-03-20T04:12:00.510Z,0
2017-03-20T04:12:41.001Z,0
2017-03-20T04:13:21.501Z,0
2017-03-20T04:14:01.988Z,0
2017-03-20T04:14:42.479Z,0
2017-03-20T04:15:22.962Z,0
2017-03-20T04:16:03.470Z,0
2017-03-20T04:16:43.946Z,0
2017-03-20T04:17:24.442Z,0
2017-03-20T04:18:04.954Z,0
2017-03-20T04:18:45.420Z,0
2017-03-20T04:19:25.895Z,0
2017-03-20T04:20:06.391Z,0
2017-03-20T04:20:46.876Z,0
2017-03-20T04:21:27.371Z,0
2017-03-20T04:22:07.862Z,0
2017-03-20T04:22:48.355Z,0
2017-03-20T04:23:28.845Z,0
2017-03-20T04:24:09.354Z,0
2017-03-20T04:24:49.877Z,0
2017-03-20T04:25:30.306Z,0
2017-03-20T04:26:10.799Z,0
2017-03-20T04:26:51.304Z,0
2017-03-20T04:27:31.801Z,0
2017-03-20T04:28:12.268Z,0
2017-03-20T04:28:52.761Z,0
2017-03-20T04:29:33.250Z,0
2017-03-20T04:30:13.744Z,0
2017-03-20T04:30:54.230Z,0
2017-03-20T04:31:34.755Z,0
2017-03-20T04:32:15.248Z,0
2017-03-20T04:32:56.314Z,0
2017-03-20T04:33:36.813Z,0
2017-03-20T04:34:17.302Z,0
2017-03-20T04:34:57.796Z,0
2017-03-20T04:35:38.288Z,0
2017-03-20T04:36:18.781Z,0
2017-03-20T04:36:59.318Z,0
2017-03-20T04:37:39.755Z,0
2017-03-20T04:38:20.242Z,0
2017-03-20T04:39:00.750Z,0
2017-03-20T04:39:41.240Z,0
2017-03-20T04:40:21.735Z,0
2017-03-20T04:41:02.238Z,0
2017-03-20T04:41:42.731Z,0
2017-03-20T04:42:23.217Z,0
2017-03-20T04:43:03.726Z,0
2017-03-20T04:43:44.200Z,0
2017-03-20T04:44:24.690Z,0
2017-03-20T04:45:05.182Z,0
2017-03-20T04:45:45.673Z,0
2017-03-20T04:46:26.166Z,0
2017-03-20T04:47:06.666Z,0
2017-03-20T04:47:47.153Z,0
2017-03-20T04:48:27.643Z,0
2017-03-20T04:49:08.144Z,0
2017-03-20T04:49:48.623Z,0
2017-03-20T04:50:29.119Z,0
2017-03-20T04:51:09.620Z,0
2017-03-20T04:51:50.106Z,0
2017-03-20T04:52:30.597Z,0
2017-03-20T04:53:11.099Z,0
2017-03-20T04:53:51.592Z,0
2017-03-20T04:54:32.076Z,0
2017-03-20T04:55:12.574Z,0
2017-03-20T04:55:53.048Z,0
2017-03-20T04:56:33.514Z,0
2017-03-20T04:57:14.010Z,0
2017-03-20T04:57:54.485Z,0
2017-03-20T04:58:34.994Z,0
2017-03-20T04:59:15.486Z,0
2017-03-20T04:59:55.985Z,0
2017-03-20T05:00:36.474Z,0
2017-03-20T05:01:16.963Z,0
2017-03-20T05:01:57.465Z,0
2017-03-20T05:02:37.953Z,0
2017-03-20T05:03:18.441Z,0
2017-03-20T05:03:58.911Z,0
2017-03-20T05:04:39.426Z,0
2017-03-20T05:05:19.916Z,0
2017-03-20T05:06:00.416Z,0
2017-03-20T05:06:40.898Z,0
2017-03-20T05:07:21.384Z,0
2017-03-20T05:08:01.887Z,4
2017-03-20T05:08:42.381Z,4
2017-03-20T05:09:22.872Z,4
2017-03-20T05:10:03.366Z,4
2017-03-20T05:10:43.868Z,0
2017-03-20T05:11:24.358Z,4
2017-03-20T05:12:04.855Z,4
2017-03-20T05:12:45.346Z,4
2017-03-20T05:13:25.831Z,8
2017-03-20T05:14:06.324Z,4
2017-03-20T05:14:46.809Z,8
2017-03-20T05:15:27.326Z,8
2017-03-20T05:16:07.751Z,8
2017-03-20T05:16:48.249Z,8
2017-03-20T05:17:28.748Z,12
2017-03-20T05:18:09.236Z,12
2017-03-20T05:18:49.745Z,12
2017-03-20T05:19:30.227Z,16
2017-03-20T05:20:10.718Z,16
2017-03-20T05:20:51.209Z,16
2017-03-20T05:21:31.693Z,16
2017-03-20T05:22:12.202Z,20
2017-03-20T05:22:52.697Z,20
2017-03-20T05:23:33.182Z,24
2017-03-20T05:24:13.669Z,28
2017-03-20T05:24:54.163Z,32
2017-03-20T05:25:34.656Z,32
2017-03-20T05:26:15.154Z,32
2017-03-20T05:26:55.650Z,36
2017-03-20T05:27:36.136Z,40
2017-03-20T05:28:16.626Z,44
2017-03-20T05:28:57.128Z,48
2017-03-20T05:29:37.615Z,48
2017-03-20T05:30:18.101Z,60
2017-03-20T05:30:58.596Z,60
2017-03-20T05:31:39.087Z,64
2017-03-20T05:32:19.580Z,72
2017-03-20T05:33:00.075Z,76
2017-03-20T05:33:40.563Z,84
2017-03-20T05:34:21.058Z,92
2017-03-20T05:35:01.554Z,96
2017-03-20T05:35:42.041Z,100
2017-03-20T05:36:22.537Z,108
2017-03-20T05:37:03.035Z,116
2017-03-20T05:37:43.521Z,120
2017-03-20T05:38:24.010Z,132
2017-03-20T05:39:04.509Z,140
2017-03-20T05:39:45.000Z,156
2017-03-20T05:40:25.486Z,164
2017-03-20T05:41:05.987Z,180
2017-03-20T05:41:46.472Z,188
2017-03-20T05:42:26.964Z,192
2017-03-20T05:43:07.465Z,192
2017-03-20T05:43:47.948Z,200
2017-03-20T05:44:28.441Z,204
2017-03-20T05:45:08.920Z,212
2017-03-20T05:45:49.398Z,212
2017-03-20T05:46:29.888Z,228
2017-03-20T05:47:10.379Z,248
2017-03-20T05:47:50.871Z,268
2017-03-20T05:48:31.358Z,288
2017-03-20T05:49:12.900Z,304
2017-03-20T05:49:53.348Z,312
2017-03-20T05:50:33.862Z,328
2017-03-20T05:51:14.361Z,344
2017-03-20T05:51:54.849Z,356
2017-03-20T05:52:35.523Z,376
2017-03-20T05:53:15.801Z,400
2017-03-20T05:53:56.295Z,404
2017-03-20T05:54:36.759Z,412
2017-03-20T05:55:17.742Z,436
2017-03-20T05:55:58.251Z,464
2017-03-20T05:56:38.726Z,476
2017-03-20T05:57:19.196Z,484
2017-03-20T05:57:59.686Z,520
2017-03-20T05:58:40.186Z,564
2017-03-20T05:59:20.675Z,600
2017-03-20T06:00:01.135Z,636
2017-03-20T06:00:41.658Z,676
2017-03-20T06:01:22.154Z,712
2017-03-20T06:02:02.645Z,716
2017-03-20T06:02:43.135Z,736
2017-03-20T06:03:23.618Z,788
2017-03-20T06:04:04.104Z,796
2017-03-20T06:04:44.610Z,808
2017-03-20T06:05:25.124Z,824
2017-03-20T06:06:05.622Z,856
2017-03-20T06:06:46.128Z,888
2017-03-20T06:09:14.056Z,1012
2017-03-20T06:09:54.549Z,1020
2017-03-20T06:10:35.030Z,1016
2017-03-20T06:11:15.512Z,1000
2017-03-20T06:11:56.002Z,1000
2017-03-20T06:12:36.491Z,1016
2017-03-20T06:13:16.983Z,1048
2017-03-20T06:13:57.464Z,1080
2017-03-20T06:14:37.949Z,1108
2017-03-20T06:15:18.440Z,1176
2017-03-20T06:15:58.900Z,1224
2017-03-20T06:16:39.391Z,1260
2017-03-20T06:17:19.899Z,1376
2017-03-20T06:18:00.399Z,1540
2017-03-20T06:18:40.874Z,1628
2017-03-20T06:19:21.376Z,1672
2017-03-20T06:20:01.852Z,1716
2017-03-20T06:20:42.335Z,1696
2017-03-20T06:21:22.821Z,1688
2017-03-20T06:22:03.309Z,1764
2017-03-20T06:22:43.795Z,1940
2017-03-20T06:23:24.283Z,2128
2017-03-20T06:24:04.790Z,2308
2017-03-20T06:24:45.285Z,2440
2017-03-20T06:25:25.755Z,2436
2017-03-20T06:26:06.252Z,2408
2017-03-20T06:26:46.726Z,2512
2017-03-20T06:27:27.217Z,2768
2017-03-20T06:28:07.721Z,2936
2017-03-20T06:28:48.221Z,2940
2017-03-20T06:29:28.719Z,2836
2017-03-20T06:30:09.222Z,2904
2017-03-20T06:30:49.700Z,3104
2017-03-20T06:31:30.203Z,3196
2017-03-20T06:32:10.699Z,3164
2017-03-20T06:32:51.190Z,3016
2017-03-20T06:33:31.715Z,2880
2017-03-20T06:34:12.175Z,2692
2017-03-20T06:34:52.668Z,2672
2017-03-20T06:35:33.156Z,2716
2017-03-20T06:36:13.654Z,2872
2017-03-20T06:36:54.154Z,3016
2017-03-20T06:37:34.671Z,3076
2017-03-20T06:38:15.165Z,3200
2017-03-20T06:38:55.661Z,3344
2017-03-20T06:39:36.993Z,3480
2017-03-20T06:40:17.493Z,3532
2017-03-20T06:40:57.991Z,3528
2017-03-20T06:41:38.484Z,3608
2017-03-20T06:42:18.990Z,3688
2017-03-20T06:42:59.472Z,3640
2017-03-20T06:43:39.958Z,3640
2017-03-20T06:44:20.457Z,3624
2017-03-20T06:45:00.946Z,3400
2017-03-20T06:45:41.442Z,3228
2017-03-20T06:46:21.938Z,3200
2017-03-20T06:47:02.420Z,3124
2017-03-20T06:47:42.982Z,3104
2017-03-20T06:48:23.637Z,3180
2017-03-20T06:49:04.261Z,3208
2017-03-20T06:49:44.926Z,3212
2017-03-20T06:50:25.488Z,3356
2017-03-20T06:51:05.994Z,3512
2017-03-20T06:51:46.482Z,3516
2017-03-20T06:52:26.982Z,3496
2017-03-20T06:53:07.477Z,3392
2017-03-20T06:53:47.988Z,3400
2017-03-20T06:54:28.479Z,3580
2017-03-20T06:55:08.974Z,4052
2017-03-20T06:55:49.467Z,4476
2017-03-20T06:56:29.959Z,4716
2017-03-20T06:57:10.451Z,4856
2017-03-20T06:57:50.956Z,4708
2017-03-20T06:58:31.436Z,4532
2017-03-20T06:59:11.929Z,4424
2017-03-20T06:59:52.420Z,4244
2017-03-20T07:00:32.920Z,4020
2017-03-20T07:01:13.407Z,3800
2017-03-20T07:01:53.909Z,3636
2017-03-20T07:02:34.404Z,3572
2017-03-20T07:03:14.910Z,3648
2017-03-20T07:03:55.410Z,3748
2017-03-20T07:04:35.901Z,3832
2017-03-20T07:05:16.402Z,3800
2017-03-20T07:05:56.915Z,3672
2017-03-20T07:06:37.442Z,3524
2017-03-20T07:07:18.030Z,3464
2017-03-20T07:07:58.523Z,3448
2017-03-20T07:08:39.030Z,3604
2017-03-20T07:09:19.567Z,3776
2017-03-20T07:10:00.153Z,3796
2017-03-20T07:10:40.697Z,3728
2017-03-20T07:11:21.363Z,3728
2017-03-20T07:12:02.015Z,3964
2017-03-20T07:12:42.523Z,4356
2017-03-20T07:13:23.003Z,4768
2017-03-20T07:14:03.670Z,5500
2017-03-20T07:14:44.241Z,5512
2017-03-20T07:15:24.794Z,5708
2017-03-20T07:16:05.388Z,5956
2017-03-20T07:16:45.927Z,5664
2017-03-20T07:17:26.477Z,5316
2017-03-20T07:18:07.010Z,4924
2017-03-20T07:18:47.607Z,5256
2017-03-20T07:19:28.183Z,5820
2017-03-20T07:20:08.725Z,5976
2017-03-20T07:20:49.294Z,7060
2017-03-20T07:21:29.846Z,8236
2017-03-20T07:22:10.413Z,10024
2017-03-20T07:22:51.015Z,11300
2017-03-20T07:23:31.681Z,11948
2017-03-20T07:24:12.214Z,12696
2017-03-20T07:24:52.751Z,12244
2017-03-20T07:25:33.256Z,9576
2017-03-20T07:26:13.847Z,9652
2017-03-20T07:26:54.419Z,11164
2017-03-20T07:27:34.938Z,9492
2017-03-20T07:28:15.530Z,9660
2017-03-20T07:28:56.100Z,8400
2017-03-20T07:29:36.615Z,8320
2017-03-20T07:30:17.177Z,8416
2017-03-20T07:30:57.697Z,8524
2017-03-20T07:31:38.234Z,9464
2017-03-20T07:32:18.797Z,9544
2017-03-20T07:32:59.434Z,10800
2017-03-20T07:33:39.945Z,12312
2017-03-20T07:34:20.509Z,12644
2017-03-20T07:35:01.062Z,11464
2017-03-20T07:35:41.568Z,8376
2017-03-20T07:36:22.081Z,9964
2017-03-20T07:37:02.593Z,7092
2017-03-20T07:37:43.141Z,6992
2017-03-20T07:38:23.687Z,6852
2017-03-20T07:39:04.215Z,6180
2017-03-20T07:39:44.722Z,5976
2017-03-20T07:40:25.269Z,7316
2017-03-20T07:41:05.754Z,9392
2017-03-20T07:41:46.291Z,11132
2017-03-20T07:42:26.830Z,14324
2017-03-20T07:43:07.331Z,21440
2017-03-20T07:43:47.886Z,23744
2017-03-20T07:44:28.394Z,23808
2017-03-20T07:45:08.899Z,24000
2017-03-20T07:45:49.428Z,24512
2017-03-20T07:46:29.937Z,21536
2017-03-20T07:47:10.448Z,21920
2017-03-20T07:47:50.953Z,21280
2017-03-20T07:48:31.464Z,12572
2017-03-20T07:49:12.002Z,7780
2017-03-20T07:49:52.513Z,8492
2017-03-20T07:50:33.010Z,8616
2017-03-20T07:51:13.615Z,10604
2017-03-20T07:51:54.170Z,21472
2017-03-20T07:52:34.709Z,19808
2017-03-20T07:53:15.210Z,17152
2017-03-20T07:53:56.714Z,14800
2017-03-20T07:54:37.190Z,13044
2017-03-20T07:55:17.766Z,11932
2017-03-20T07:55:58.371Z,11424
2017-03-20T07:56:38.998Z,11484
2017-03-20T07:57:19.549Z,13100
2017-03-20T07:58:00.115Z,15492
2017-03-20T07:58:40.745Z,18304
2017-03-20T07:59:21.331Z,20224
2017-03-20T08:00:01.913Z,21312
2017-03-20T08:00:42.443Z,21728
2017-03-20T08:01:22.952Z,22496
2017-03-20T08:02:03.457Z,23776
2017-03-20T08:02:43.949Z,22848
2017-03-20T08:03:24.487Z,22112
2017-03-20T08:04:04.924Z,20960
2017-03-20T08:04:45.458Z,20928
2017-03-20T08:05:25.981Z,20128
2017-03-20T08:06:06.476Z,20544
2017-03-20T08:06:46.959Z,22496
2017-03-20T08:07:27.458Z,22144
2017-03-20T08:08:07.955Z,20064
2017-03-20T08:08:48.448Z,20448
2017-03-20T08:09:28.938Z,17792
2017-03-20T08:10:09.442Z,20032
2017-03-20T08:10:49.941Z,20256
2017-03-20T08:11:30.448Z,20512
2017-03-20T08:12:10.953Z,18304
2017-03-20T08:12:51.444Z,19968
2017-03-20T08:13:31.963Z,13884
2017-03-20T08:14:12.448Z,16304
2017-03-20T08:14:52.947Z,18496
2017-03-20T08:15:33.456Z,18400
2017-03-20T08:16:13.965Z,15900
2017-03-20T08:16:54.461Z,17408
2017-03-20T08:17:35.023Z,15980
2017-03-20T08:19:52.919Z,11424
2017-03-20T08:20:33.518Z,10064
2017-03-20T08:21:14.146Z,12220
2017-03-20T08:21:54.705Z,19296
2017-03-20T08:22:35.277Z,16104
2017-03-20T08:23:15.781Z,19872
2017-03-20T08:23:56.266Z,15700
2017-03-20T08:24:36.815Z,17984
2017-03-20T08:25:17.310Z,25888
2017-03-20T08:25:57.811Z,15468
2017-03-20T08:26:38.326Z,15000
2017-03-20T08:27:18.825Z,15532
2017-03-20T08:27:59.328Z,15932
2017-03-20T08:28:39.825Z,14620
2017-03-20T08:29:20.332Z,13208
2017-03-20T08:30:00.822Z,13680
2017-03-20T08:30:41.318Z,14756
2017-03-20T08:31:21.823Z,13676
2017-03-20T08:32:02.334Z,12716
2017-03-20T08:32:42.864Z,11824
2017-03-20T08:33:23.342Z,10984
2017-03-20T08:34:03.954Z,10884
2017-03-20T08:34:44.487Z,11332
2017-03-20T08:35:25.068Z,12124
2017-03-20T08:36:05.595Z,12384
2017-03-20T08:36:46.082Z,12600
2017-03-20T08:37:26.576Z,13068
2017-03-20T08:38:07.101Z,13656
2017-03-20T08:38:47.625Z,14020
2017-03-20T08:39:28.814Z,13924
2017-03-20T08:40:09.360Z,14092
2017-03-20T08:40:49.887Z,14516
2017-03-20T08:41:30.418Z,14048
2017-03-20T08:42:10.941Z,14244
2017-03-20T08:42:51.459Z,14372
2017-03-20T08:43:31.956Z,14184
2017-03-20T08:44:12.452Z,13868
2017-03-20T08:44:52.944Z,13496
2017-03-20T08:45:33.451Z,12556
2017-03-20T08:46:13.946Z,12352
2017-03-20T08:46:54.488Z,11956
2017-03-20T08:47:35.095Z,11744
2017-03-20T08:48:15.710Z,11660
2017-03-20T08:48:56.304Z,11548
2017-03-20T08:49:36.928Z,11596
2017-03-20T08:50:17.549Z,11776
2017-03-20T08:50:58.206Z,11668
2017-03-20T08:51:38.823Z,11336
2017-03-20T08:52:19.434Z,10916
2017-03-20T08:53:00.039Z,10708
2017-03-20T08:53:40.660Z,10544
2017-03-20T08:54:21.265Z,10500
2017-03-20T08:55:01.906Z,10336
2017-03-20T08:55:42.528Z,10120
2017-03-20T08:56:23.091Z,10128
2017-03-20T08:57:03.704Z,10172
2017-03-20T08:57:44.347Z,10208
2017-03-20T08:58:24.912Z,10088
2017-03-20T08:59:05.561Z,9788
2017-03-20T08:59:46.177Z,9584
2017-03-20T09:00:26.829Z,9580
2017-03-20T09:01:07.483Z,9732
2017-03-20T09:01:48.157Z,9704
2017-03-20T09:02:28.815Z,9600
2017-03-20T09:03:10.418Z,9484
2017-03-20T09:03:51.063Z,9104
2017-03-20T09:04:32.381Z,8896
2017-03-20T09:05:12.976Z,8740
2017-03-20T09:05:53.554Z,8576
2017-03-20T09:06:34.144Z,8524
2017-03-20T09:07:14.746Z,8628
2017-03-20T09:07:55.325Z,8744
2017-03-20T09:08:35.917Z,8936
2017-03-20T09:09:16.359Z,9112
2017-03-20T09:09:56.857Z,9288
2017-03-20T09:10:37.365Z,9448
2017-03-20T09:11:17.850Z,9632
2017-03-20T09:11:58.331Z,9804
2017-03-20T09:12:38.821Z,9932
2017-03-20T09:13:19.283Z,10060
2017-03-20T09:13:59.785Z,10092
2017-03-20T09:14:40.225Z,10216
2017-03-20T09:15:20.723Z,10364
2017-03-20T09:16:01.164Z,10484
2017-03-20T09:16:41.608Z,10720
2017-03-20T09:17:22.106Z,10684
2017-03-20T09:18:02.586Z,10752
2017-03-20T09:20:35.553Z,11728
2017-03-20T09:21:16.085Z,11884
2017-03-20T09:21:56.623Z,11680
2017-03-20T09:22:37.146Z,11208
2017-03-20T09:23:17.613Z,10888
2017-03-20T09:23:58.059Z,10556
2017-03-20T09:24:38.524Z,10448
2017-03-20T09:25:18.989Z,10636
2017-03-20T09:25:59.494Z,10856
2017-03-20T09:26:39.959Z,11152
2017-03-20T09:27:20.416Z,11328
2017-03-20T09:28:00.884Z,11332
2017-03-20T09:28:41.338Z,11456
2017-03-20T09:29:21.838Z,11616
2017-03-20T09:30:02.334Z,11592
2017-03-20T09:32:20.274Z,10796
2017-03-20T09:33:00.874Z,10808
2017-03-20T09:33:41.503Z,10768
2017-03-20T09:34:22.016Z,10788
2017-03-20T09:35:02.496Z,10788
2017-03-20T09:35:42.991Z,10828
2017-03-20T09:36:23.492Z,10900
2017-03-20T09:37:03.944Z,11092
2017-03-20T09:37:44.417Z,11284
2017-03-20T09:38:24.889Z,11376
2017-03-20T09:39:05.336Z,11252
2017-03-20T09:39:45.800Z,11128